EDT,Max TemperatureF,Mean TemperatureF,Min TemperatureF,Max Dew PointF,MeanDew PointF,Min DewpointF,Max Humidity, Mean Humidity, Min Humidity, Max Sea Level PressureIn, Mean Sea Level PressureIn, Min Sea Level PressureIn, Max VisibilityMiles, Mean VisibilityMiles, Min VisibilityMiles, Max Wind SpeedMPH, Mean Wind SpeedMPH, Max Gust SpeedMPH,PrecipitationIn, CloudCover, Events, WindDirDegrees
2013-4-1,46,41,32,38,25,14,81,58,32,30.12,29.97,29.77,10,9,2,15,9,26,0.01,5,Snow,312
2013-4-2,45,32,21,18,14,11,64,47,28,30.27,30.21,30.12,10,10,10,14,7,23,0.00,2,,309
2013-4-3,46,32,19,17,14,11,78,46,27,30.43,30.37,30.27,10,10,10,15,6,26,0.00,0,,12
2013-4-4,53,40,27,28,16,11,79,45,20,30.40,30.19,30.01,10,10,10,6,2,,0.00,0,,114
2013-4-5,60,42,25,29,24,19,85,53,25,30.18,30.05,29.98,10,10,9,17,3,21,0.00,0,,3
2013-4-6,63,45,28,21,17,11,66,35,16,30.27,30.15,29.95,10,10,10,13,6,18,0.00,1,,133
2013-4-7,73,64,55,46,38,17,60,40,22,30.00,29.93,29.88,10,10,10,22,12,31,0.00,4,,231
2013-4-8,75,60,46,52,48,44,100,74,38,30.01,29.97,29.89,10,6,0,18,5,29,0.02,4,Fog,197
2013-4-9,82,66,50,54,51,46,89,60,35,30.09,30.00,29.92,10,10,7,18,5,30,0.00,2,,219
2013-4-10,82,72,61,61,57,54,81,60,44,29.96,29.90,29.80,10,10,10,24,11,40,0.00,4,Thunderstorm,231
2013-4-11,73,65,57,61,57,52,94,82,64,29.88,29.72,29.56,10,8,2,14,6,20,0.33,6,Rain,338
2013-4-12,60,50,41,57,45,32,94,82,61,29.92,29.66,29.49,10,6,1,18,9,25,0.43,8,Rain,262
2013-4-13,55,46,36,35,33,29,89,67,47,30.07,29.97,29.92,10,10,7,16,7,25,0.00,6,,265
2013-4-14,66,49,32,40,35,30,92,62,34,30.14,30.04,29.94,10,8,5,12,4,,0.00,2,,131
2013-4-15,71,58,46,51,47,40,80,62,51,30.04,29.99,29.92,10,10,10,15,6,17,0.00,3,,182
2013-4-16,78,65,55,63,56,49,100,78,58,30.18,30.10,29.99,10,6,0,28,10,34,0.41,4,Fog-Rain-Thunderstorm,286
2013-4-17,68,60,53,61,56,52,100,91,76,30.25,30.17,30.03,10,4,0,13,5,21,0.14,7,Fog-Rain,79
2013-4-18,84,72,59,60,55,51,90,59,33,30.03,29.85,29.66,10,10,7,20,11,33,0.00,2,,182
2013-4-19,73,56,39,59,44,31,100,68,42,29.96,29.68,29.45,10,8,2,32,17,45,0.26,7,Rain,255
2013-4-20,48,40,32,33,29,24,88,65,44,30.43,30.20,29.99,10,10,9,15,11,29,0.01,5,Rain,279
2013-4-21,55,40,26,29,27,23,96,61,34,30.58,30.49,30.43,10,10,9,13,4,17,0.00,0,,65
2013-4-22,70,50,32,42,35,27,85,58,33,30.42,30.29,30.18,10,10,10,7,1,,0.00,0,,154
2013-4-23,71,56,42,48,38,28,73,48,35,30.18,30.07,29.91,10,10,10,13,6,21,0.00,2,,182
2013-4-24,64,50,35,54,47,32,94,80,46,30.22,29.89,29.78,10,6,1,20,11,32,0.59,7,Rain,245
2013-4-25,55,42,30,37,32,26,92,66,44,30.40,30.29,30.25,10,10,5,14,5,24,0.00,3,,248
2013-4-26,63,46,30,41,32,27,89,62,29,30.48,30.42,30.38,10,10,10,7,1,,0.00,0,,42
2013-4-27,71,52,34,44,37,32,93,57,27,30.38,30.27,30.12,10,10,6,12,3,24,0.00,2,,186
2013-4-28,64,58,53,56,54,47,94,85,69,30.10,29.92,29.86,10,6,1,14,8,,0.96,8,Rain-Thunderstorm,169
2013-4-29,64,58,52,56,54,50,94,87,70,30.01,29.96,29.90,10,7,3,8,5,,0.01,8,Rain,232
2013-4-30,75,60,45,56,50,44,100,80,46,30.09,30.05,30.00,10,5,0,9,1,,0.01,2,Fog,148